sensor_id;sensor_type;location;lat;lon;timestamp;temperature;humidity
24152;DHT22;12311;50.866;4.332;2023-12-14T00:01:14;9.70;99.90
24152;DHT22;12311;50.866;4.332;2023-12-14T00:03:40;9.70;99.90
24152;DHT22;12311;50.866;4.332;2023-12-14T00:06:08;9.70;99.90
24152;DHT22;12311;50.866;4.332;2023-12-14T00:08:33;9.80;99.90
24152;DHT22;12311;50.866;4.332;2023-12-14T00:11:06;9.70;99.90
24152;DHT22;12311;50.866;4.332;2023-12-14T00:13:33;9.70;99.90
24152;DHT22;12311;50.866;4.332;2023-12-14T00:15:59;9.60;99.90
24152;DHT22;12311;50.866;4.332;2023-12-14T00:18:25;9.60;99.90
24152;DHT22;12311;50.866;4.332;2023-12-14T00:20:51;9.70;99.90
24152;DHT22;12311;50.866;4.332;2023-12-14T00:23:18;9.70;99.90
24152;DHT22;12311;50.866;4.332;2023-12-14T00:25:44;9.70;99.90
24152;DHT22;12311;50.866;4.332;2023-12-14T00:28:09;9.70;99.90
24152;DHT22;12311;50.866;4.332;2023-12-14T00:30:35;9.80;99.90
24152;DHT22;12311;50.866;4.332;2023-12-14T00:33:01;9.80;99.90
24152;DHT22;12311;50.866;4.332;2023-12-14T00:35:26;9.80;99.90
24152;DHT22;12311;50.866;4.332;2023-12-14T00:37:52;9.80;99.90
24152;DHT22;12311;50.866;4.332;2023-12-14T00:40:18;9.80;99.90
24152;DHT22;12311;50.866;4.332;2023-12-14T00:42:43;9.80;99.90
24152;DHT22;12311;50.866;4.332;2023-12-14T00:45:09;9.80;99.90
24152;DHT22;12311;50.866;4.332;2023-12-14T00:47:35;9.80;99.90
24152;DHT22;12311;50.866;4.332;2023-12-14T00:50:01;9.80;99.90
24152;DHT22;12311;50.866;4.332;2023-12-14T00:52:26;9.70;99.90
24152;DHT22;12311;50.866;4.332;2023-12-14T00:54:52;9.60;99.90
24152;DHT22;12311;50.866;4.332;2023-12-14T00:57:18;9.60;99.90
24152;DHT22;12311;50.866;4.332;2023-12-14T00:59:43;9.60;99.90
24152;DHT22;12311;50.866;4.332;2023-12-14T01:02:09;9.70;99.90
24152;DHT22;12311;50.866;4.332;2023-12-14T01:04:34;9.80;99.90
24152;DHT22;12311;50.866;4.332;2023-12-14T01:07:00;9.80;99.90
24152;DHT22;12311;50.866;4.332;2023-12-14T01:09:26;9.80;99.90
24152;DHT22;12311;50.866;4.332;2023-12-14T01:11:51;9.80;99.90
24152;DHT22;12311;50.866;4.332;2023-12-14T01:14:17;9.90;99.90
24152;DHT22;12311;50.866;4.332;2023-12-14T01:16:43;9.80;99.90
24152;DHT22;12311;50.866;4.332;2023-12-14T01:19:08;9.70;99.90
24152;DHT22;12311;50.866;4.332;2023-12-14T01:21:34;9.50;99.90
24152;DHT22;12311;50.866;4.332;2023-12-14T01:24:00;9.60;99.90
24152;DHT22;12311;50.866;4.332;2023-12-14T01:26:28;9.60;99.90
24152;DHT22;12311;50.866;4.332;2023-12-14T01:28:54;9.70;99.90
24152;DHT22;12311;50.866;4.332;2023-12-14T01:31:19;9.70;99.90
24152;DHT22;12311;50.866;4.332;2023-12-14T01:33:49;9.60;99.90
24152;DHT22;12311;50.866;4.332;2023-12-14T01:36:25;9.60;99.90
24152;DHT22;12311;50.866;4.332;2023-12-14T01:38:51;9.50;99.90
24152;DHT22;12311;50.866;4.332;2023-12-14T01:41:17;9.60;99.90
24152;DHT22;12311;50.866;4.332;2023-12-14T01:43:43;9.60;99.90
24152;DHT22;12311;50.866;4.332;2023-12-14T01:46:09;9.60;99.90
24152;DHT22;12311;50.866;4.332;2023-12-14T01:48:35;9.60;99.90
24152;DHT22;12311;50.866;4.332;2023-12-14T01:51:01;9.60;99.90
24152;DHT22;12311;50.866;4.332;2023-12-14T01:53:26;9.50;99.90
24152;DHT22;12311;50.866;4.332;2023-12-14T01:55:52;9.50;99.90
24152;DHT22;12311;50.866;4.332;2023-12-14T01:58:18;9.60;99.90
24152;DHT22;12311;50.866;4.332;2023-12-14T02:00:53;9.60;99.90
24152;DHT22;12311;50.866;4.332;2023-12-14T02:03:20;9.50;99.90
24152;DHT22;12311;50.866;4.332;2023-12-14T02:05:46;9.50;99.90
24152;DHT22;12311;50.866;4.332;2023-12-14T02:08:12;9.50;99.90
24152;DHT22;12311;50.866;4.332;2023-12-14T02:10:37;9.50;99.90
24152;DHT22;12311;50.866;4.332;2023-12-14T02:13:03;9.40;99.90
24152;DHT22;12311;50.866;4.332;2023-12-14T02:15:29;9.50;99.90
24152;DHT22;12311;50.866;4.332;2023-12-14T02:17:55;9.50;99.90
24152;DHT22;12311;50.866;4.332;2023-12-14T02:20:21;9.40;99.90
24152;DHT22;12311;50.866;4.332;2023-12-14T02:22:51;9.40;99.90
24152;DHT22;12311;50.866;4.332;2023-12-14T02:25:17;9.30;99.90
24152;DHT22;12311;50.866;4.332;2023-12-14T02:27:43;9.20;99.90
24152;DHT22;12311;50.866;4.332;2023-12-14T02:30:09;9.30;99.90
24152;DHT22;12311;50.866;4.332;2023-12-14T02:32:35;9.10;99.90
24152;DHT22;12311;50.866;4.332;2023-12-14T02:35:01;9.00;99.90
24152;DHT22;12311;50.866;4.332;2023-12-14T02:37:27;9.00;99.90
24152;DHT22;12311;50.866;4.332;2023-12-14T02:39:53;9.10;99.90
24152;DHT22;12311;50.866;4.332;2023-12-14T02:42:19;9.20;99.90
24152;DHT22;12311;50.866;4.332;2023-12-14T02:44:44;9.10;99.90
24152;DHT22;12311;50.866;4.332;2023-12-14T02:47:10;9.10;99.90
24152;DHT22;12311;50.866;4.332;2023-12-14T02:49:36;9.10;99.90
24152;DHT22;12311;50.866;4.332;2023-12-14T02:52:01;9.10;99.90
24152;DHT22;12311;50.866;4.332;2023-12-14T02:54:27;9.10;99.90
24152;DHT22;12311;50.866;4.332;2023-12-14T02:56:53;9.10;99.90
24152;DHT22;12311;50.866;4.332;2023-12-14T02:59:18;8.90;99.90
24152;DHT22;12311;50.866;4.332;2023-12-14T03:01:44;8.90;99.90
24152;DHT22;12311;50.866;4.332;2023-12-14T03:04:09;8.90;99.90
24152;DHT22;12311;50.866;4.332;2023-12-14T03:06:35;8.90;99.90
24152;DHT22;12311;50.866;4.332;2023-12-14T03:09:01;8.90;99.90
24152;DHT22;12311;50.866;4.332;2023-12-14T03:11:26;8.90;99.90
24152;DHT22;12311;50.866;4.332;2023-12-14T03:13:52;8.90;99.90
24152;DHT22;12311;50.866;4.332;2023-12-14T03:16:19;8.80;99.90
24152;DHT22;12311;50.866;4.332;2023-12-14T03:18:45;8.80;99.90
24152;DHT22;12311;50.866;4.332;2023-12-14T03:21:11;8.70;99.90
24152;DHT22;12311;50.866;4.332;2023-12-14T03:23:36;8.70;99.90
24152;DHT22;12311;50.866;4.332;2023-12-14T03:26:02;8.70;99.90
24152;DHT22;12311;50.866;4.332;2023-12-14T03:28:28;8.70;99.90
24152;DHT22;12311;50.866;4.332;2023-12-14T03:30:54;8.50;99.90
24152;DHT22;12311;50.866;4.332;2023-12-14T03:33:19;8.50;99.90
24152;DHT22;12311;50.866;4.332;2023-12-14T03:35:45;8.30;99.90
24152;DHT22;12311;50.866;4.332;2023-12-14T03:38:13;8.20;99.90
24152;DHT22;12311;50.866;4.332;2023-12-14T03:40:39;8.10;99.90
24152;DHT22;12311;50.866;4.332;2023-12-14T03:43:05;8.00;99.90
24152;DHT22;12311;50.866;4.332;2023-12-14T03:45:31;8.00;99.90
24152;DHT22;12311;50.866;4.332;2023-12-14T03:47:56;7.90;99.90
24152;DHT22;12311;50.866;4.332;2023-12-14T03:50:22;7.90;99.90
24152;DHT22;12311;50.866;4.332;2023-12-14T03:52:48;7.90;99.90
24152;DHT22;12311;50.866;4.332;2023-12-14T03:55:14;7.90;99.90
24152;DHT22;12311;50.866;4.332;2023-12-14T03:57:41;7.90;99.90
24152;DHT22;12311;50.866;4.332;2023-12-14T04:00:11;7.90;99.90
24152;DHT22;12311;50.866;4.332;2023-12-14T04:02:38;7.80;99.90
24152;DHT22;12311;50.866;4.332;2023-12-14T04:05:05;7.80;99.90
24152;DHT22;12311;50.866;4.332;2023-12-14T04:07:31;7.80;99.90
24152;DHT22;12311;50.866;4.332;2023-12-14T04:09:57;7.70;99.90
24152;DHT22;12311;50.866;4.332;2023-12-14T04:12:22;7.70;99.90
24152;DHT22;12311;50.866;4.332;2023-12-14T04:14:48;7.70;99.90
24152;DHT22;12311;50.866;4.332;2023-12-14T04:17:15;7.60;99.90
24152;DHT22;12311;50.866;4.332;2023-12-14T04:19:41;7.60;99.90
24152;DHT22;12311;50.866;4.332;2023-12-14T04:22:07;7.60;99.90
24152;DHT22;12311;50.866;4.332;2023-12-14T04:24:33;7.50;99.90
24152;DHT22;12311;50.866;4.332;2023-12-14T04:26:59;7.50;99.90
24152;DHT22;12311;50.866;4.332;2023-12-14T04:29:25;7.50;99.90
24152;DHT22;12311;50.866;4.332;2023-12-14T04:31:51;7.50;99.90
24152;DHT22;12311;50.866;4.332;2023-12-14T04:34:18;7.50;99.90
24152;DHT22;12311;50.866;4.332;2023-12-14T04:36:48;7.60;99.90
24152;DHT22;12311;50.866;4.332;2023-12-14T04:39:13;7.50;99.90
24152;DHT22;12311;50.866;4.332;2023-12-14T04:41:39;7.60;99.90
24152;DHT22;12311;50.866;4.332;2023-12-14T04:44:05;7.60;99.90
24152;DHT22;12311;50.866;4.332;2023-12-14T04:46:31;7.50;99.90
24152;DHT22;12311;50.866;4.332;2023-12-14T04:48:56;7.50;99.90
24152;DHT22;12311;50.866;4.332;2023-12-14T04:51:22;7.50;99.90
24152;DHT22;12311;50.866;4.332;2023-12-14T04:53:48;7.60;99.90
24152;DHT22;12311;50.866;4.332;2023-12-14T04:56:13;7.60;99.90
24152;DHT22;12311;50.866;4.332;2023-12-14T04:58:40;7.50;99.90
24152;DHT22;12311;50.866;4.332;2023-12-14T05:01:06;7.60;99.90
24152;DHT22;12311;50.866;4.332;2023-12-14T05:03:33;7.70;99.90
24152;DHT22;12311;50.866;4.332;2023-12-14T05:05:58;7.70;99.90
24152;DHT22;12311;50.866;4.332;2023-12-14T05:08:24;7.70;99.90
24152;DHT22;12311;50.866;4.332;2023-12-14T05:10:50;7.50;99.90
24152;DHT22;12311;50.866;4.332;2023-12-14T05:13:15;7.50;99.90
24152;DHT22;12311;50.866;4.332;2023-12-14T05:15:41;7.50;99.90
24152;DHT22;12311;50.866;4.332;2023-12-14T05:18:07;7.50;99.90
24152;DHT22;12311;50.866;4.332;2023-12-14T05:20:34;7.50;99.90
24152;DHT22;12311;50.866;4.332;2023-12-14T05:23:00;7.50;99.90
24152;DHT22;12311;50.866;4.332;2023-12-14T05:25:25;7.50;99.90
24152;DHT22;12311;50.866;4.332;2023-12-14T05:27:51;7.60;99.90
24152;DHT22;12311;50.866;4.332;2023-12-14T05:30:17;7.60;99.90
24152;DHT22;12311;50.866;4.332;2023-12-14T05:32:43;7.60;99.90
24152;DHT22;12311;50.866;4.332;2023-12-14T05:35:09;7.60;99.90
24152;DHT22;12311;50.866;4.332;2023-12-14T05:37:35;7.50;99.90
24152;DHT22;12311;50.866;4.332;2023-12-14T05:40:02;7.50;99.90
24152;DHT22;12311;50.866;4.332;2023-12-14T05:42:27;7.50;99.90
24152;DHT22;12311;50.866;4.332;2023-12-14T05:44:53;7.50;99.90
24152;DHT22;12311;50.866;4.332;2023-12-14T05:47:19;7.60;99.90
24152;DHT22;12311;50.866;4.332;2023-12-14T05:49:45;7.60;99.90
24152;DHT22;12311;50.866;4.332;2023-12-14T05:52:11;7.60;99.90
24152;DHT22;12311;50.866;4.332;2023-12-14T05:54:37;7.50;99.90
24152;DHT22;12311;50.866;4.332;2023-12-14T05:57:03;7.50;99.90
24152;DHT22;12311;50.866;4.332;2023-12-14T05:59:29;7.40;99.90
24152;DHT22;12311;50.866;4.332;2023-12-14T06:01:58;7.50;99.90
24152;DHT22;12311;50.866;4.332;2023-12-14T06:04:25;7.70;99.90
24152;DHT22;12311;50.866;4.332;2023-12-14T06:06:51;7.70;99.90
24152;DHT22;12311;50.866;4.332;2023-12-14T06:09:16;7.60;99.90
24152;DHT22;12311;50.866;4.332;2023-12-14T06:11:44;7.60;99.90
24152;DHT22;12311;50.866;4.332;2023-12-14T06:14:10;7.60;99.90
24152;DHT22;12311;50.866;4.332;2023-12-14T06:16:36;7.60;99.90
24152;DHT22;12311;50.866;4.332;2023-12-14T06:19:01;7.60;99.90
24152;DHT22;12311;50.866;4.332;2023-12-14T06:21:27;7.60;99.90
24152;DHT22;12311;50.866;4.332;2023-12-14T06:23:55;7.40;99.90
24152;DHT22;12311;50.866;4.332;2023-12-14T06:26:21;7.40;99.90
24152;DHT22;12311;50.866;4.332;2023-12-14T06:28:47;7.40;99.90
24152;DHT22;12311;50.866;4.332;2023-12-14T06:31:17;7.40;99.90
24152;DHT22;12311;50.866;4.332;2023-12-14T06:33:43;7.40;99.90
24152;DHT22;12311;50.866;4.332;2023-12-14T06:36:09;7.60;99.90
24152;DHT22;12311;50.866;4.332;2023-12-14T06:38:36;7.60;99.90
24152;DHT22;12311;50.866;4.332;2023-12-14T06:41:03;7.60;99.90
24152;DHT22;12311;50.866;4.332;2023-12-14T06:43:28;7.70;99.90
24152;DHT22;12311;50.866;4.332;2023-12-14T06:45:54;7.60;99.90
24152;DHT22;12311;50.866;4.332;2023-12-14T06:48:20;7.60;99.90
24152;DHT22;12311;50.866;4.332;2023-12-14T06:50:46;7.50;99.90
24152;DHT22;12311;50.866;4.332;2023-12-14T06:53:11;7.50;99.90
24152;DHT22;12311;50.866;4.332;2023-12-14T06:55:37;7.40;99.90
24152;DHT22;12311;50.866;4.332;2023-12-14T06:58:03;7.40;99.90
24152;DHT22;12311;50.866;4.332;2023-12-14T07:00:28;7.50;99.90
24152;DHT22;12311;50.866;4.332;2023-12-14T07:02:55;7.40;99.90
24152;DHT22;12311;50.866;4.332;2023-12-14T07:05:21;7.30;99.90
24152;DHT22;12311;50.866;4.332;2023-12-14T07:07:46;7.20;99.90
24152;DHT22;12311;50.866;4.332;2023-12-14T07:10:12;7.00;99.90
24152;DHT22;12311;50.866;4.332;2023-12-14T07:12:38;6.90;99.90
24152;DHT22;12311;50.866;4.332;2023-12-14T07:15:04;7.00;99.90
24152;DHT22;12311;50.866;4.332;2023-12-14T07:17:31;6.90;99.90
24152;DHT22;12311;50.866;4.332;2023-12-14T07:19:57;6.90;99.90
24152;DHT22;12311;50.866;4.332;2023-12-14T07:22:22;6.80;99.90
24152;DHT22;12311;50.866;4.332;2023-12-14T07:24:48;6.70;99.90
24152;DHT22;12311;50.866;4.332;2023-12-14T07:27:13;6.70;99.90
24152;DHT22;12311;50.866;4.332;2023-12-14T07:29:39;6.90;99.90
24152;DHT22;12311;50.866;4.332;2023-12-14T07:32:05;6.80;99.90
24152;DHT22;12311;50.866;4.332;2023-12-14T07:34:31;6.70;99.90
24152;DHT22;12311;50.866;4.332;2023-12-14T07:36:56;6.80;99.90
24152;DHT22;12311;50.866;4.332;2023-12-14T07:39:22;6.80;99.90
24152;DHT22;12311;50.866;4.332;2023-12-14T07:41:47;6.90;99.90
24152;DHT22;12311;50.866;4.332;2023-12-14T07:44:13;7.00;99.90
24152;DHT22;12311;50.866;4.332;2023-12-14T07:46:39;7.10;99.90
24152;DHT22;12311;50.866;4.332;2023-12-14T07:49:07;7.20;99.90
24152;DHT22;12311;50.866;4.332;2023-12-14T07:51:33;7.20;99.90
24152;DHT22;12311;50.866;4.332;2023-12-14T07:53:58;7.30;99.90
24152;DHT22;12311;50.866;4.332;2023-12-14T07:56:24;7.30;99.90
24152;DHT22;12311;50.866;4.332;2023-12-14T07:58:53;7.40;99.90
24152;DHT22;12311;50.866;4.332;2023-12-14T08:01:18;7.30;99.90
24152;DHT22;12311;50.866;4.332;2023-12-14T08:03:44;7.40;99.90
24152;DHT22;12311;50.866;4.332;2023-12-14T08:06:10;7.60;99.90
24152;DHT22;12311;50.866;4.332;2023-12-14T08:08:35;7.50;99.90
24152;DHT22;12311;50.866;4.332;2023-12-14T08:11:03;7.40;99.90
24152;DHT22;12311;50.866;4.332;2023-12-14T08:13:30;7.50;99.90
24152;DHT22;12311;50.866;4.332;2023-12-14T08:15:55;7.60;99.90
24152;DHT22;12311;50.866;4.332;2023-12-14T08:18:21;7.60;99.90
24152;DHT22;12311;50.866;4.332;2023-12-14T08:20:47;7.60;99.90
24152;DHT22;12311;50.866;4.332;2023-12-14T08:23:12;7.70;99.90
24152;DHT22;12311;50.866;4.332;2023-12-14T08:25:38;7.70;99.90
24152;DHT22;12311;50.866;4.332;2023-12-14T08:28:04;7.80;99.90
24152;DHT22;12311;50.866;4.332;2023-12-14T08:30:30;7.80;99.90
24152;DHT22;12311;50.866;4.332;2023-12-14T08:32:56;7.60;99.90
24152;DHT22;12311;50.866;4.332;2023-12-14T08:35:21;7.60;99.90
24152;DHT22;12311;50.866;4.332;2023-12-14T08:37:47;7.60;99.90
24152;DHT22;12311;50.866;4.332;2023-12-14T08:40:13;7.50;99.90
24152;DHT22;12311;50.866;4.332;2023-12-14T08:42:39;7.50;99.90
24152;DHT22;12311;50.866;4.332;2023-12-14T08:45:05;7.60;99.90
24152;DHT22;12311;50.866;4.332;2023-12-14T08:47:33;7.60;99.90
24152;DHT22;12311;50.866;4.332;2023-12-14T08:49:58;7.60;99.90
24152;DHT22;12311;50.866;4.332;2023-12-14T08:52:24;7.50;99.90
24152;DHT22;12311;50.866;4.332;2023-12-14T08:54:50;7.50;99.90
24152;DHT22;12311;50.866;4.332;2023-12-14T08:57:15;7.50;99.90
24152;DHT22;12311;50.866;4.332;2023-12-14T08:59:41;7.60;99.90
24152;DHT22;12311;50.866;4.332;2023-12-14T09:02:07;7.60;99.90
24152;DHT22;12311;50.866;4.332;2023-12-14T09:04:32;7.70;99.90
24152;DHT22;12311;50.866;4.332;2023-12-14T09:07:01;7.80;99.90
24152;DHT22;12311;50.866;4.332;2023-12-14T09:09:26;7.90;99.90
24152;DHT22;12311;50.866;4.332;2023-12-14T09:11:52;8.00;99.90
24152;DHT22;12311;50.866;4.332;2023-12-14T09:14:18;8.10;99.90
24152;DHT22;12311;50.866;4.332;2023-12-14T09:16:43;8.00;99.90
24152;DHT22;12311;50.866;4.332;2023-12-14T09:19:09;8.00;99.90
24152;DHT22;12311;50.866;4.332;2023-12-14T09:21:35;8.10;99.90
24152;DHT22;12311;50.866;4.332;2023-12-14T09:24:00;8.10;99.90
24152;DHT22;12311;50.866;4.332;2023-12-14T09:26:27;8.10;99.90
24152;DHT22;12311;50.866;4.332;2023-12-14T09:28:52;8.20;99.90
24152;DHT22;12311;50.866;4.332;2023-12-14T09:31:18;8.20;99.90
24152;DHT22;12311;50.866;4.332;2023-12-14T09:33:44;8.30;99.90
24152;DHT22;12311;50.866;4.332;2023-12-14T09:36:10;8.30;99.90
24152;DHT22;12311;50.866;4.332;2023-12-14T09:38:35;8.40;99.90
24152;DHT22;12311;50.866;4.332;2023-12-14T09:41:02;8.40;99.90
24152;DHT22;12311;50.866;4.332;2023-12-14T09:43:28;8.50;99.90
24152;DHT22;12311;50.866;4.332;2023-12-14T09:45:55;8.50;99.90
24152;DHT22;12311;50.866;4.332;2023-12-14T09:48:22;8.60;99.90
24152;DHT22;12311;50.866;4.332;2023-12-14T09:50:49;8.80;99.90
24152;DHT22;12311;50.866;4.332;2023-12-14T09:53:15;8.70;99.90
24152;DHT22;12311;50.866;4.332;2023-12-14T09:55:41;8.50;99.90
24152;DHT22;12311;50.866;4.332;2023-12-14T09:58:07;8.50;99.90
24152;DHT22;12311;50.866;4.332;2023-12-14T10:00:39;8.60;99.90
24152;DHT22;12311;50.866;4.332;2023-12-14T10:03:28;8.60;99.90
24152;DHT22;12311;50.866;4.332;2023-12-14T10:05:58;8.60;99.90
24152;DHT22;12311;50.866;4.332;2023-12-14T10:08:25;8.50;99.90
24152;DHT22;12311;50.866;4.332;2023-12-14T10:10:52;8.60;99.90
24152;DHT22;12311;50.866;4.332;2023-12-14T10:13:20;8.60;99.90
24152;DHT22;12311;50.866;4.332;2023-12-14T10:15:47;8.70;99.90
24152;DHT22;12311;50.866;4.332;2023-12-14T10:18:23;8.70;99.90
24152;DHT22;12311;50.866;4.332;2023-12-14T10:20:52;8.70;99.90
24152;DHT22;12311;50.866;4.332;2023-12-14T10:23:19;8.60;99.90
24152;DHT22;12311;50.866;4.332;2023-12-14T10:25:45;8.70;99.90
24152;DHT22;12311;50.866;4.332;2023-12-14T10:28:14;8.70;99.90
24152;DHT22;12311;50.866;4.332;2023-12-14T10:30:41;8.60;99.90
24152;DHT22;12311;50.866;4.332;2023-12-14T10:33:07;8.50;99.90
24152;DHT22;12311;50.866;4.332;2023-12-14T10:35:33;8.40;99.90
24152;DHT22;12311;50.866;4.332;2023-12-14T10:38:03;8.50;99.90
24152;DHT22;12311;50.866;4.332;2023-12-14T10:40:31;8.60;99.90
24152;DHT22;12311;50.866;4.332;2023-12-14T10:42:59;8.60;99.90
24152;DHT22;12311;50.866;4.332;2023-12-14T10:45:32;8.80;99.90
24152;DHT22;12311;50.866;4.332;2023-12-14T10:48:01;8.90;99.90
24152;DHT22;12311;50.866;4.332;2023-12-14T10:50:30;9.00;99.90
24152;DHT22;12311;50.866;4.332;2023-12-14T10:53:00;9.10;99.90
24152;DHT22;12311;50.866;4.332;2023-12-14T10:55:42;9.10;99.90
24152;DHT22;12311;50.866;4.332;2023-12-14T10:58:09;9.30;99.90
24152;DHT22;12311;50.866;4.332;2023-12-14T11:00:36;9.40;99.90
24152;DHT22;12311;50.866;4.332;2023-12-14T11:03:04;9.50;99.90
24152;DHT22;12311;50.866;4.332;2023-12-14T11:05:32;9.50;99.90
24152;DHT22;12311;50.866;4.332;2023-12-14T11:08:03;9.60;99.90
24152;DHT22;12311;50.866;4.332;2023-12-14T11:10:52;9.50;99.90
24152;DHT22;12311;50.866;4.332;2023-12-14T11:13:18;9.30;99.90
24152;DHT22;12311;50.866;4.332;2023-12-14T11:15:49;9.20;99.90
24152;DHT22;12311;50.866;4.332;2023-12-14T11:20:53;9.20;99.90
24152;DHT22;12311;50.866;4.332;2023-12-14T11:25:58;8.90;99.90
24152;DHT22;12311;50.866;4.332;2023-12-14T11:28:25;8.90;99.90
24152;DHT22;12311;50.866;4.332;2023-12-14T11:30:51;9.00;99.90
24152;DHT22;12311;50.866;4.332;2023-12-14T11:33:16;9.00;99.90
24152;DHT22;12311;50.866;4.332;2023-12-14T11:35:42;8.90;99.90
24152;DHT22;12311;50.866;4.332;2023-12-14T11:38:08;8.70;99.90
24152;DHT22;12311;50.866;4.332;2023-12-14T11:40:44;8.70;99.90
24152;DHT22;12311;50.866;4.332;2023-12-14T11:43:11;8.60;99.90
24152;DHT22;12311;50.866;4.332;2023-12-14T11:45:40;8.50;99.90
24152;DHT22;12311;50.866;4.332;2023-12-14T11:48:07;8.60;99.90
24152;DHT22;12311;50.866;4.332;2023-12-14T11:50:37;8.70;99.90
24152;DHT22;12311;50.866;4.332;2023-12-14T11:53:03;8.90;99.90
24152;DHT22;12311;50.866;4.332;2023-12-14T11:55:30;8.90;99.90
24152;DHT22;12311;50.866;4.332;2023-12-14T11:57:57;9.00;99.90
24152;DHT22;12311;50.866;4.332;2023-12-14T12:00:29;9.00;99.90
24152;DHT22;12311;50.866;4.332;2023-12-14T12:03:14;8.90;99.90
24152;DHT22;12311;50.866;4.332;2023-12-14T12:05:51;9.00;99.90
24152;DHT22;12311;50.866;4.332;2023-12-14T12:08:19;9.00;99.90
24152;DHT22;12311;50.866;4.332;2023-12-14T12:10:46;8.90;99.90
24152;DHT22;12311;50.866;4.332;2023-12-14T12:13:15;8.80;99.90
24152;DHT22;12311;50.866;4.332;2023-12-14T12:15:43;8.80;99.90
24152;DHT22;12311;50.866;4.332;2023-12-14T12:18:11;8.90;99.90
24152;DHT22;12311;50.866;4.332;2023-12-14T12:20:37;8.90;99.90
24152;DHT22;12311;50.866;4.332;2023-12-14T12:23:03;9.00;99.90
24152;DHT22;12311;50.866;4.332;2023-12-14T12:25:30;9.10;99.90
24152;DHT22;12311;50.866;4.332;2023-12-14T12:27:59;9.10;99.90
24152;DHT22;12311;50.866;4.332;2023-12-14T12:30:26;8.90;99.90
24152;DHT22;12311;50.866;4.332;2023-12-14T12:32:51;9.10;99.90
24152;DHT22;12311;50.866;4.332;2023-12-14T12:35:21;9.00;99.90
24152;DHT22;12311;50.866;4.332;2023-12-14T12:37:47;9.30;99.90
24152;DHT22;12311;50.866;4.332;2023-12-14T12:40:22;9.20;99.90
24152;DHT22;12311;50.866;4.332;2023-12-14T12:42:49;9.10;99.90
24152;DHT22;12311;50.866;4.332;2023-12-14T12:45:16;8.90;99.90
24152;DHT22;12311;50.866;4.332;2023-12-14T12:47:47;8.70;99.90
24152;DHT22;12311;50.866;4.332;2023-12-14T12:50:14;8.60;99.90
24152;DHT22;12311;50.866;4.332;2023-12-14T12:52:40;8.60;99.90
24152;DHT22;12311;50.866;4.332;2023-12-14T12:55:08;8.50;99.90
24152;DHT22;12311;50.866;4.332;2023-12-14T12:57:35;8.60;99.90
24152;DHT22;12311;50.866;4.332;2023-12-14T13:00:01;8.60;99.90
24152;DHT22;12311;50.866;4.332;2023-12-14T13:02:29;8.50;99.90
24152;DHT22;12311;50.866;4.332;2023-12-14T13:04:54;8.50;99.90
24152;DHT22;12311;50.866;4.332;2023-12-14T13:07:20;8.60;99.90
24152;DHT22;12311;50.866;4.332;2023-12-14T13:09:46;8.60;99.90
24152;DHT22;12311;50.866;4.332;2023-12-14T13:12:11;8.70;99.90
24152;DHT22;12311;50.866;4.332;2023-12-14T13:14:37;8.60;99.90
24152;DHT22;12311;50.866;4.332;2023-12-14T13:17:03;8.70;99.90
24152;DHT22;12311;50.866;4.332;2023-12-14T13:19:28;8.70;99.90
24152;DHT22;12311;50.866;4.332;2023-12-14T13:21:54;8.60;99.90
24152;DHT22;12311;50.866;4.332;2023-12-14T13:24:23;8.70;99.90
24152;DHT22;12311;50.866;4.332;2023-12-14T13:26:48;8.70;99.90
24152;DHT22;12311;50.866;4.332;2023-12-14T13:29:14;8.70;99.90
24152;DHT22;12311;50.866;4.332;2023-12-14T13:31:39;8.70;99.90
24152;DHT22;12311;50.866;4.332;2023-12-14T13:34:05;8.80;99.90
24152;DHT22;12311;50.866;4.332;2023-12-14T13:36:31;8.80;99.90
24152;DHT22;12311;50.866;4.332;2023-12-14T13:38:57;8.80;99.90
24152;DHT22;12311;50.866;4.332;2023-12-14T13:41:23;8.90;99.90
24152;DHT22;12311;50.866;4.332;2023-12-14T13:43:49;9.10;99.90
24152;DHT22;12311;50.866;4.332;2023-12-14T13:46:17;9.00;99.90
24152;DHT22;12311;50.866;4.332;2023-12-14T13:48:43;9.00;99.90
24152;DHT22;12311;50.866;4.332;2023-12-14T13:51:08;8.90;99.90
24152;DHT22;12311;50.866;4.332;2023-12-14T13:53:34;9.00;99.90
24152;DHT22;12311;50.866;4.332;2023-12-14T13:56:00;8.90;99.90
24152;DHT22;12311;50.866;4.332;2023-12-14T13:58:25;8.80;99.90
24152;DHT22;12311;50.866;4.332;2023-12-14T14:00:51;8.90;99.90
24152;DHT22;12311;50.866;4.332;2023-12-14T14:03:17;8.90;99.90
24152;DHT22;12311;50.866;4.332;2023-12-14T14:05:42;8.90;99.90
24152;DHT22;12311;50.866;4.332;2023-12-14T14:08:09;9.00;99.90
24152;DHT22;12311;50.866;4.332;2023-12-14T14:10:36;9.00;99.90
24152;DHT22;12311;50.866;4.332;2023-12-14T14:13:02;9.20;99.90
24152;DHT22;12311;50.866;4.332;2023-12-14T14:15:28;9.30;99.90
24152;DHT22;12311;50.866;4.332;2023-12-14T14:17:54;9.10;99.90
24152;DHT22;12311;50.866;4.332;2023-12-14T14:20:20;9.00;99.90
24152;DHT22;12311;50.866;4.332;2023-12-14T14:22:47;9.30;99.90
24152;DHT22;12311;50.866;4.332;2023-12-14T14:25:13;9.30;99.90
24152;DHT22;12311;50.866;4.332;2023-12-14T14:27:38;9.40;99.90
24152;DHT22;12311;50.866;4.332;2023-12-14T14:30:06;9.30;99.90
24152;DHT22;12311;50.866;4.332;2023-12-14T14:32:32;9.40;99.90
24152;DHT22;12311;50.866;4.332;2023-12-14T14:35:00;9.50;99.90
24152;DHT22;12311;50.866;4.332;2023-12-14T14:37:26;9.40;99.90
24152;DHT22;12311;50.866;4.332;2023-12-14T14:39:52;9.40;99.90
24152;DHT22;12311;50.866;4.332;2023-12-14T14:42:18;9.40;99.90
24152;DHT22;12311;50.866;4.332;2023-12-14T14:44:43;9.30;99.90
24152;DHT22;12311;50.866;4.332;2023-12-14T14:47:09;9.20;99.90
24152;DHT22;12311;50.866;4.332;2023-12-14T14:49:35;9.20;99.90
24152;DHT22;12311;50.866;4.332;2023-12-14T14:52:00;9.10;99.90
24152;DHT22;12311;50.866;4.332;2023-12-14T14:54:26;9.00;99.90
24152;DHT22;12311;50.866;4.332;2023-12-14T14:56:51;8.90;99.90
24152;DHT22;12311;50.866;4.332;2023-12-14T14:59:17;9.00;99.90
24152;DHT22;12311;50.866;4.332;2023-12-14T15:01:43;9.20;99.90
24152;DHT22;12311;50.866;4.332;2023-12-14T15:04:10;9.10;99.90
24152;DHT22;12311;50.866;4.332;2023-12-14T15:06:36;9.10;99.90
24152;DHT22;12311;50.866;4.332;2023-12-14T15:09:03;9.10;99.90
24152;DHT22;12311;50.866;4.332;2023-12-14T15:11:29;9.10;99.90
24152;DHT22;12311;50.866;4.332;2023-12-14T15:13:55;9.10;99.90
24152;DHT22;12311;50.866;4.332;2023-12-14T15:16:21;8.90;99.90
24152;DHT22;12311;50.866;4.332;2023-12-14T15:18:53;8.90;99.90
24152;DHT22;12311;50.866;4.332;2023-12-14T15:21:19;8.80;99.90
24152;DHT22;12311;50.866;4.332;2023-12-14T15:23:45;8.70;99.90
24152;DHT22;12311;50.866;4.332;2023-12-14T15:26:13;8.60;99.90
24152;DHT22;12311;50.866;4.332;2023-12-14T15:28:39;8.80;99.90
24152;DHT22;12311;50.866;4.332;2023-12-14T15:31:06;8.80;99.90
24152;DHT22;12311;50.866;4.332;2023-12-14T15:33:31;8.90;99.90
24152;DHT22;12311;50.866;4.332;2023-12-14T15:35:58;8.90;99.90
24152;DHT22;12311;50.866;4.332;2023-12-14T15:38:24;9.00;99.90
24152;DHT22;12311;50.866;4.332;2023-12-14T15:40:49;8.90;99.90
24152;DHT22;12311;50.866;4.332;2023-12-14T15:43:15;8.90;99.90
24152;DHT22;12311;50.866;4.332;2023-12-14T15:45:41;8.90;99.90